Time;durP1;ratioP1;P1;durP2;ratioP2;P2;SDS_P1;SDS_P2;PMS_P1;PMS_P2;Temp;Humidity;BMP_temperature;BMP_pressure;BME280_temperature;BME280_humidity;BME280_pressure;Samples;Min_cycle;Max_cycle;Signal;HPM_P1;HPM_P2
2022/10/24 00:00:35;;;;;;;;;;;14.70;63.80;;;;;;5008376;28;81273;-38
2022/10/24 00:03:01;;;;;;;;;;;14.70;63.80;;;;;;5008054;28;81893;-38
2022/10/24 00:05:26;;;;;;;;;;;14.70;63.80;;;;;;5007471;28;82869;-38
2022/10/24 00:07:52;;;;;;;;;;;14.70;63.80;;;;;;5007067;28;82938;-38
2022/10/24 00:10:18;;;;;;;;;;;14.60;63.70;;;;;;5007688;28;83643;-38
2022/10/24 00:12:44;;;;;;;;;;;14.60;63.80;;;;;;5006972;28;82965;-38
2022/10/24 00:15:09;;;;;;;;;;;14.60;63.80;;;;;;5010440;28;81935;-38
2022/10/24 00:17:35;;;;;;;;;;;14.60;63.80;;;;;;5007531;28;83173;-38
2022/10/24 00:20:01;;;;;;;;;;;14.60;63.80;;;;;;5007051;28;82072;-38
2022/10/24 00:22:27;;;;;;;;;;;14.60;63.90;;;;;;5007492;28;81992;-38
2022/10/24 00:24:53;;;;;;;;;;;14.50;63.80;;;;;;5007996;28;82259;-38
2022/10/24 00:27:18;;;;;;;;;;;14.60;63.90;;;;;;5007456;28;82222;-38
2022/10/24 00:29:44;;;;;;;;;;;14.60;63.80;;;;;;5007539;28;82610;-38
2022/10/24 00:32:09;;;;;;;;;;;14.60;63.80;;;;;;5006627;28;83068;-38
2022/10/24 00:34:35;;;;;;;;;;;14.50;63.80;;;;;;5007394;28;81918;-38
2022/10/24 00:37:01;;;;;;;;;;;14.50;63.80;;;;;;5009687;28;82104;-38
2022/10/24 00:39:26;;;;;;;;;;;14.50;63.80;;;;;;5007249;28;81961;-38
2022/10/24 00:41:53;;;;;;;;;;;14.50;63.90;;;;;;5007207;28;82008;-38
2022/10/24 00:44:27;;;;;;;;;;;14.50;63.80;;;;;;5007011;28;83074;-38
2022/10/24 00:46:55;;;;;;;;;;;14.50;63.80;;;;;;5007053;28;82047;-38
2022/10/24 00:49:33;;;;;;;;;;;14.50;63.80;;;;;;5007532;28;83069;-38
2022/10/24 00:52:02;;;;;;;;;;;14.50;63.90;;;;;;5006658;28;82739;-38
2022/10/24 00:54:27;;;;;;;;;;;14.50;63.90;;;;;;5006896;28;82074;-38
2022/10/24 00:57:03;;;;;;;;;;;14.40;63.80;;;;;;5008013;28;82855;-38
2022/10/24 00:59:28;;;;;;;;;;;14.50;63.90;;;;;;5007053;28;81932;-38
2022/10/24 01:01:54;;;;;;;;;;;14.40;63.90;;;;;;5006931;28;82265;-38
2022/10/24 01:04:20;;;;;;;;;;;14.40;63.90;;;;;;5006754;28;81951;-38
2022/10/24 01:06:48;;;;;;;;;;;14.40;63.80;;;;;;5007002;28;82016;-38
2022/10/24 01:09:29;;;;;;;;;;;14.40;63.90;;;;;;5006689;28;82810;-38
2022/10/24 01:12:06;;;;;;;;;;;14.40;63.80;;;;;;5006063;28;82449;-38
2022/10/24 01:14:32;;;;;;;;;;;14.40;63.80;;;;;;5007324;28;81316;-38
2022/10/24 01:17:13;;;;;;;;;;;14.40;63.90;;;;;;5006905;28;81926;-38
2022/10/24 01:19:57;;;;;;;;;;;14.40;63.90;;;;;;5009359;28;82922;-38
2022/10/24 01:22:31;;;;;;;;;;;14.40;64.00;;;;;;5006119;28;82891;-38
2022/10/24 01:24:59;;;;;;;;;;;14.30;63.80;;;;;;5006341;28;82081;-38
2022/10/24 01:27:43;;;;;;;;;;;14.40;63.90;;;;;;5006527;28;81954;-38
2022/10/24 01:30:11;;;;;;;;;;;14.30;63.80;;;;;;5006864;28;82035;-38
2022/10/24 01:32:36;;;;;;;;;;;14.30;63.80;;;;;;5006060;28;83087;-38
2022/10/24 01:35:17;;;;;;;;;;;14.30;63.80;;;;;;5006558;28;82663;-38
2022/10/24 01:37:57;;;;;;;;;;;14.30;63.90;;;;;;5006591;28;82429;-38
2022/10/24 01:40:26;;;;;;;;;;;14.30;63.90;;;;;;5006793;28;81396;-38
2022/10/24 01:42:53;;;;;;;;;;;14.30;63.90;;;;;;5008977;28;82032;-38
2022/10/24 01:45:21;;;;;;;;;;;14.30;63.90;;;;;;5006057;28;82208;-38
2022/10/24 01:47:49;;;;;;;;;;;14.30;63.90;;;;;;5005267;28;84363;-38
2022/10/24 01:50:16;;;;;;;;;;;14.30;63.90;;;;;;5006301;28;82483;-38
2022/10/24 01:52:43;;;;;;;;;;;14.20;63.80;;;;;;5006060;28;83172;-38
2022/10/24 01:55:09;;;;;;;;;;;14.20;63.90;;;;;;5006198;28;82010;-38
2022/10/24 01:57:35;;;;;;;;;;;14.20;63.90;;;;;;5006135;28;82007;-38
2022/10/24 02:00:01;;;;;;;;;;;14.20;63.90;;;;;;5006005;28;83028;-38
2022/10/24 02:02:32;;;;;;;;;;;14.20;63.90;;;;;;5005942;28;82043;-38
2022/10/24 02:05:03;;;;;;;;;;;14.20;63.90;;;;;;5009056;28;82400;-38
2022/10/24 02:07:29;;;;;;;;;;;14.20;64.00;;;;;;5005829;28;82043;-38
2022/10/24 02:09:58;;;;;;;;;;;14.20;63.90;;;;;;5005796;28;82627;-38
2022/10/24 02:12:25;;;;;;;;;;;14.20;64.00;;;;;;5004272;28;84259;-38
2022/10/24 02:14:54;;;;;;;;;;;14.10;63.90;;;;;;5005831;28;82096;-38
2022/10/24 02:17:19;;;;;;;;;;;14.20;63.90;;;;;;5005712;28;82426;-38
2022/10/24 02:19:45;;;;;;;;;;;14.10;64.00;;;;;;5005717;28;83295;-38
2022/10/24 02:22:27;;;;;;;;;;;14.10;64.00;;;;;;5006031;28;82031;-38
2022/10/24 02:24:55;;;;;;;;;;;14.10;64.00;;;;;;5005548;28;82495;-38
2022/10/24 02:27:22;;;;;;;;;;;14.10;64.00;;;;;;5008156;28;82965;-38
2022/10/24 02:29:54;;;;;;;;;;;14.10;64.00;;;;;;5006035;28;82334;-38
2022/10/24 02:32:26;;;;;;;;;;;14.10;64.00;;;;;;5005361;28;82245;-38
2022/10/24 02:34:52;;;;;;;;;;;14.10;64.00;;;;;;5005493;28;81849;-38
2022/10/24 02:37:18;;;;;;;;;;;14.00;64.00;;;;;;5005097;28;82981;-38
2022/10/24 02:39:45;;;;;;;;;;;14.00;64.00;;;;;;5005524;28;82849;-38
2022/10/24 02:42:11;;;;;;;;;;;14.00;64.10;;;;;;5005269;28;82039;-38
2022/10/24 02:44:37;;;;;;;;;;;14.00;64.00;;;;;;5005416;28;84643;-38
2022/10/24 02:47:04;;;;;;;;;;;14.00;64.00;;;;;;5005414;28;83090;-38
2022/10/24 02:49:29;;;;;;;;;;;14.00;64.00;;;;;;5008061;28;81963;-38
2022/10/24 02:51:55;;;;;;;;;;;14.00;64.10;;;;;;5005319;28;83034;-38
2022/10/24 02:54:21;;;;;;;;;;;14.00;64.10;;;;;;5006000;28;81345;-38
2022/10/24 02:56:49;;;;;;;;;;;14.00;64.10;;;;;;5005471;28;81858;-38
2022/10/24 02:59:15;;;;;;;;;;;13.90;64.00;;;;;;5005179;28;82648;-38
2022/10/24 03:01:40;;;;;;;;;;;13.90;64.00;;;;;;5004673;28;83152;-38
2022/10/24 03:04:06;;;;;;;;;;;13.90;64.00;;;;;;5005305;28;82930;-38
2022/10/24 03:06:31;;;;;;;;;;;13.90;64.00;;;;;;5005065;28;82993;-38
2022/10/24 03:08:57;;;;;;;;;;;13.90;64.00;;;;;;5008124;28;81955;-38
2022/10/24 03:11:22;;;;;;;;;;;13.90;64.00;;;;;;5004671;28;82752;-38
2022/10/24 03:13:48;;;;;;;;;;;13.90;64.00;;;;;;5005355;28;81953;-38
2022/10/24 03:16:13;;;;;;;;;;;13.80;64.10;;;;;;5005255;28;82295;-38
2022/10/24 03:18:39;;;;;;;;;;;13.80;64.00;;;;;;5005688;28;82376;-38
2022/10/24 03:21:04;;;;;;;;;;;13.80;64.10;;;;;;5007982;28;82030;-38
2022/10/24 03:23:30;;;;;;;;;;;13.80;64.00;;;;;;5008511;28;82388;-38
2022/10/24 03:25:56;;;;;;;;;;;13.80;64.00;;;;;;5007627;28;84118;-39
2022/10/24 03:28:21;;;;;;;;;;;13.80;64.10;;;;;;5008083;28;81822;-38
2022/10/24 03:30:47;;;;;;;;;;;13.80;64.10;;;;;;5011271;28;82695;-38
2022/10/24 03:33:12;;;;;;;;;;;13.80;64.10;;;;;;5008421;28;82358;-38
2022/10/24 03:35:38;;;;;;;;;;;13.80;64.10;;;;;;5008419;28;82853;-38
2022/10/24 03:38:06;;;;;;;;;;;13.70;64.00;;;;;;5008247;28;82906;-38
2022/10/24 03:40:35;;;;;;;;;;;13.70;64.10;;;;;;5008084;28;82059;-38
2022/10/24 03:43:01;;;;;;;;;;;13.70;64.00;;;;;;5008489;28;82386;-38
2022/10/24 03:45:26;;;;;;;;;;;13.70;64.00;;;;;;5007982;28;83040;-38
2022/10/24 03:47:52;;;;;;;;;;;13.70;64.10;;;;;;5008183;28;81995;-38
2022/10/24 03:50:17;;;;;;;;;;;13.70;64.10;;;;;;5007588;28;82768;-38
2022/10/24 03:52:43;;;;;;;;;;;13.70;64.10;;;;;;5010496;28;83054;-38
2022/10/24 03:55:09;;;;;;;;;;;13.70;64.10;;;;;;5008115;28;82454;-38
2022/10/24 03:57:34;;;;;;;;;;;13.60;64.10;;;;;;5007488;28;82772;-38
2022/10/24 04:00:00;;;;;;;;;;;13.60;64.00;;;;;;5007852;28;82072;-38
2022/10/24 04:02:25;;;;;;;;;;;13.70;64.10;;;;;;5008027;28;82385;-38
2022/10/24 04:04:51;;;;;;;;;;;13.60;64.00;;;;;;5007844;28;82160;-38
2022/10/24 04:07:16;;;;;;;;;;;13.60;64.00;;;;;;5008458;28;81438;-38
2022/10/24 04:09:42;;;;;;;;;;;13.60;64.00;;;;;;5007781;28;81905;-38
2022/10/24 04:12:07;;;;;;;;;;;13.60;64.00;;;;;;5006832;28;82530;-38
2022/10/24 04:14:33;;;;;;;;;;;13.60;64.00;;;;;;5009803;28;83027;-38
2022/10/24 04:16:58;;;;;;;;;;;13.60;64.10;;;;;;5007370;28;82972;-38
2022/10/24 04:19:24;;;;;;;;;;;13.60;64.00;;;;;;5007498;28;81680;-38
2022/10/24 04:21:49;;;;;;;;;;;13.60;64.00;;;;;;5007697;28;82428;-38
2022/10/24 04:24:15;;;;;;;;;;;13.60;64.10;;;;;;5007296;28;83297;-38
2022/10/24 04:26:40;;;;;;;;;;;13.60;64.10;;;;;;5007286;28;82040;-38
2022/10/24 04:29:06;;;;;;;;;;;13.50;64.00;;;;;;5007448;28;82433;-38
2022/10/24 04:31:31;;;;;;;;;;;13.50;64.00;;;;;;5007705;28;82335;-38
2022/10/24 04:33:57;;;;;;;;;;;13.50;64.10;;;;;;5007200;28;81979;-38
2022/10/24 04:36:22;;;;;;;;;;;13.50;64.00;;;;;;5009879;28;82542;-38
2022/10/24 04:38:48;;;;;;;;;;;13.50;64.00;;;;;;5006634;28;83051;-38
2022/10/24 04:41:13;;;;;;;;;;;13.50;64.10;;;;;;5007135;28;83250;-38
2022/10/24 04:43:39;;;;;;;;;;;13.50;64.00;;;;;;5007002;28;83124;-38
2022/10/24 04:46:05;;;;;;;;;;;13.50;64.10;;;;;;5007061;28;82056;-38
2022/10/24 04:48:30;;;;;;;;;;;13.40;64.00;;;;;;5007109;28;82021;-38
2022/10/24 04:50:56;;;;;;;;;;;13.40;64.10;;;;;;5006757;28;82977;-38
2022/10/24 04:53:22;;;;;;;;;;;13.40;64.20;;;;;;5007005;28;81872;-38
2022/10/24 04:55:47;;;;;;;;;;;13.40;64.10;;;;;;5009990;28;81428;-38
2022/10/24 04:58:13;;;;;;;;;;;13.40;64.00;;;;;;5006740;28;81789;-38
2022/10/24 05:00:38;;;;;;;;;;;13.40;64.00;;;;;;5007036;28;82331;-38
2022/10/24 05:03:04;;;;;;;;;;;13.40;64.10;;;;;;5006272;28;83906;-38
2022/10/24 05:05:29;;;;;;;;;;;13.40;64.00;;;;;;5006970;28;82056;-38
2022/10/24 05:07:55;;;;;;;;;;;13.40;64.00;;;;;;5007119;28;83036;-37
2022/10/24 05:10:21;;;;;;;;;;;13.40;64.00;;;;;;5006820;28;82969;-38
2022/10/24 05:12:46;;;;;;;;;;;13.40;64.10;;;;;;5006171;28;82142;-38
2022/10/24 05:15:13;;;;;;;;;;;13.30;64.00;;;;;;5006834;28;82378;-38
2022/10/24 05:17:39;;;;;;;;;;;13.30;64.00;;;;;;5009412;28;83022;-38
2022/10/24 05:20:06;;;;;;;;;;;13.40;64.10;;;;;;5007205;28;82248;-38
2022/10/24 05:22:31;;;;;;;;;;;13.30;64.00;;;;;;5006528;28;82965;-38
2022/10/24 05:24:57;;;;;;;;;;;13.30;64.00;;;;;;5006647;28;82010;-38
2022/10/24 05:27:23;;;;;;;;;;;13.30;64.10;;;;;;5006011;28;82912;-38
2022/10/24 05:29:50;;;;;;;;;;;13.30;64.00;;;;;;5006318;28;83015;-38
2022/10/24 05:32:15;;;;;;;;;;;13.30;64.10;;;;;;5006620;28;82108;-38
2022/10/24 05:34:41;;;;;;;;;;;13.30;64.00;;;;;;5006493;28;82339;-38
2022/10/24 05:37:06;;;;;;;;;;;13.30;64.00;;;;;;5006323;28;83034;-38
2022/10/24 05:39:32;;;;;;;;;;;13.30;64.10;;;;;;5009170;28;82054;-38
2022/10/24 05:41:57;;;;;;;;;;;13.20;64.00;;;;;;5005794;28;82204;-38
2022/10/24 05:44:23;;;;;;;;;;;13.20;64.10;;;;;;5006666;28;81297;-38
2022/10/24 05:46:48;;;;;;;;;;;13.20;64.00;;;;;;5006185;28;82066;-38
2022/10/24 05:49:14;;;;;;;;;;;13.20;64.10;;;;;;5006168;28;82707;-38
2022/10/24 05:51:39;;;;;;;;;;;13.20;64.10;;;;;;5005493;28;83059;-38
2022/10/24 05:54:05;;;;;;;;;;;13.20;64.10;;;;;;5006074;28;83304;-38
2022/10/24 05:56:30;;;;;;;;;;;13.20;64.10;;;;;;5005833;28;82208;-38
2022/10/24 05:58:56;;;;;;;;;;;13.20;64.10;;;;;;5006164;28;82067;-38
2022/10/24 06:01:21;;;;;;;;;;;13.20;64.10;;;;;;5008661;28;82155;-38
2022/10/24 06:03:47;;;;;;;;;;;13.20;64.30;;;;;;5006129;28;82266;-37
2022/10/24 06:06:12;;;;;;;;;;;13.20;64.20;;;;;;5006045;28;82340;-38
2022/10/24 06:08:38;;;;;;;;;;;13.20;64.20;;;;;;5006289;28;82497;-38
2022/10/24 06:11:07;;;;;;;;;;;13.20;64.30;;;;;;5005612;28;82432;-38
2022/10/24 06:13:32;;;;;;;;;;;13.10;64.20;;;;;;5005862;28;82360;-38
2022/10/24 06:15:58;;;;;;;;;;;13.20;64.30;;;;;;5005098;28;83253;-38
2022/10/24 06:18:23;;;;;;;;;;;13.10;64.30;;;;;;5006004;28;82108;-38
2022/10/24 06:20:49;;;;;;;;;;;13.10;64.30;;;;;;5005747;28;82371;-38
2022/10/24 06:23:14;;;;;;;;;;;13.10;64.30;;;;;;5008275;28;83139;-38
2022/10/24 06:25:40;;;;;;;;;;;13.10;64.30;;;;;;5005782;28;82417;-38
2022/10/24 06:28:06;;;;;;;;;;;13.10;64.30;;;;;;5005708;28;82982;-38
2022/10/24 06:30:32;;;;;;;;;;;13.10;64.30;;;;;;5005645;28;82099;-38
2022/10/24 06:32:58;;;;;;;;;;;13.10;64.30;;;;;;5006123;28;82259;-38
2022/10/24 06:35:23;;;;;;;;;;;13.10;64.30;;;;;;5005411;28;83465;-38
2022/10/24 06:37:49;;;;;;;;;;;13.10;64.40;;;;;;5005510;28;82012;-38
2022/10/24 06:40:15;;;;;;;;;;;13.10;64.40;;;;;;5005144;28;82865;-38
2022/10/24 06:42:40;;;;;;;;;;;13.10;64.40;;;;;;5004950;28;83087;-38
2022/10/24 06:45:06;;;;;;;;;;;13.10;64.40;;;;;;5008224;28;82091;-38
2022/10/24 06:47:31;;;;;;;;;;;13.10;64.40;;;;;;5005489;28;82825;-38
2022/10/24 06:49:57;;;;;;;;;;;13.10;64.40;;;;;;5005510;28;82099;-38
2022/10/24 06:52:22;;;;;;;;;;;13.10;64.50;;;;;;5005186;28;82438;-38
2022/10/24 06:54:48;;;;;;;;;;;13.10;64.40;;;;;;5006533;28;83099;-38
2022/10/24 06:57:13;;;;;;;;;;;13.00;64.40;;;;;;5008953;28;81283;-37
2022/10/24 06:59:39;;;;;;;;;;;13.10;64.50;;;;;;5008921;28;81915;-38
2022/10/24 07:02:04;;;;;;;;;;;13.10;64.40;;;;;;5008576;28;83153;-39
2022/10/24 07:04:30;;;;;;;;;;;13.10;64.40;;;;;;5010798;28;83021;-38
2022/10/24 07:06:55;;;;;;;;;;;13.10;64.50;;;;;;5008496;28;83059;-38
2022/10/24 07:09:21;;;;;;;;;;;13.10;64.50;;;;;;5008839;28;82251;-38
2022/10/24 07:11:46;;;;;;;;;;;13.10;64.50;;;;;;5008316;28;82512;-38
2022/10/24 07:14:12;;;;;;;;;;;13.10;64.40;;;;;;5008069;28;82908;-38
2022/10/24 07:16:38;;;;;;;;;;;13.10;64.60;;;;;;5008339;28;82123;-38
2022/10/24 07:19:04;;;;;;;;;;;13.10;64.60;;;;;;5008661;28;82691;-38
2022/10/24 07:21:30;;;;;;;;;;;13.10;64.50;;;;;;5008625;28;82055;-37
2022/10/24 07:23:56;;;;;;;;;;;13.10;64.50;;;;;;5008376;28;82059;-38
2022/10/24 07:26:23;;;;;;;;;;;13.10;64.50;;;;;;5010867;28;82262;-38
2022/10/24 07:28:52;;;;;;;;;;;13.10;64.50;;;;;;5007226;28;82784;-38
2022/10/24 07:31:18;;;;;;;;;;;13.10;64.60;;;;;;5008121;28;83208;-38
2022/10/24 07:33:44;;;;;;;;;;;13.10;64.70;;;;;;5007947;28;83193;-38
2022/10/24 07:36:13;;;;;;;;;;;13.00;64.70;;;;;;5008468;28;81949;-38
2022/10/24 07:38:39;;;;;;;;;;;13.00;64.80;;;;;;5008146;28;82445;-38
2022/10/24 07:41:05;;;;;;;;;;;13.00;64.80;;;;;;5008214;28;83042;-38
2022/10/24 07:43:31;;;;;;;;;;;13.00;64.90;;;;;;5008422;28;82076;-38
2022/10/24 07:45:56;;;;;;;;;;;13.00;65.00;;;;;;5008734;28;82514;-38
2022/10/24 07:48:22;;;;;;;;;;;13.00;64.90;;;;;;5010654;28;83017;-38
2022/10/24 07:50:47;;;;;;;;;;;13.10;65.00;;;;;;5007967;28;82468;-38
2022/10/24 07:53:13;;;;;;;;;;;13.10;64.90;;;;;;5007084;28;82950;-38
2022/10/24 07:55:40;;;;;;;;;;;13.10;65.00;;;;;;5007886;28;82036;-38
2022/10/24 07:58:06;;;;;;;;;;;13.00;65.00;;;;;;5007648;28;82164;-38
2022/10/24 08:00:31;;;;;;;;;;;13.00;65.10;;;;;;5007931;28;82419;-38
2022/10/24 08:02:57;;;;;;;;;;;13.10;65.10;;;;;;5007867;28;81832;-38
2022/10/24 08:05:23;;;;;;;;;;;13.10;65.30;;;;;;5007417;28;82336;-38
2022/10/24 08:07:49;;;;;;;;;;;13.10;65.10;;;;;;5007579;28;82400;-38
2022/10/24 08:10:15;;;;;;;;;;;13.10;65.20;;;;;;5010903;28;81313;-38
2022/10/24 08:12:41;;;;;;;;;;;13.00;65.20;;;;;;5006698;28;83068;-38
2022/10/24 08:15:07;;;;;;;;;;;13.00;65.10;;;;;;5007723;28;82015;-38
2022/10/24 08:17:32;;;;;;;;;;;13.10;65.10;;;;;;5007028;28;84760;-38
2022/10/24 08:19:58;;;;;;;;;;;13.10;65.10;;;;;;5007205;28;83160;-38
2022/10/24 08:22:23;;;;;;;;;;;13.10;65.10;;;;;;5007704;28;82198;-38
2022/10/24 08:24:49;;;;;;;;;;;13.10;65.10;;;;;;5007513;28;82128;-38
2022/10/24 08:27:14;;;;;;;;;;;13.10;65.00;;;;;;5007130;28;82858;-38
2022/10/24 08:29:40;;;;;;;;;;;13.10;65.00;;;;;;5007688;28;81984;-38
2022/10/24 08:32:05;;;;;;;;;;;13.10;65.00;;;;;;5010269;28;82245;-38
2022/10/24 08:34:31;;;;;;;;;;;13.10;65.00;;;;;;5007963;28;81308;-38
2022/10/24 08:36:57;;;;;;;;;;;13.10;65.10;;;;;;5007385;28;81904;-38
2022/10/24 08:39:22;;;;;;;;;;;13.10;65.10;;;;;;5007107;28;83241;-38
2022/10/24 08:41:56;;;;;;;;;;;13.10;65.10;;;;;;5006441;28;83021;-38
2022/10/24 08:44:27;;;;;;;;;;;13.10;65.10;;;;;;5007029;28;83421;-38
2022/10/24 08:46:55;;;;;;;;;;;13.10;65.10;;;;;;5006773;28;82498;-38
2022/10/24 08:49:39;;;;;;;;;;;13.10;65.10;;;;;;5007170;28;82086;-38
2022/10/24 08:52:17;;;;;;;;;;;13.10;65.20;;;;;;5007225;28;82496;-38
2022/10/24 08:54:43;;;;;;;;;;;13.10;65.10;;;;;;5009460;28;82270;-38
2022/10/24 08:57:35;;;;;;;;;;;13.10;65.20;;;;;;5006942;28;82387;-38
2022/10/24 09:00:07;;;;;;;;;;;13.10;65.10;;;;;;5006634;28;81606;-38
2022/10/24 09:02:36;;;;;;;;;;;13.10;65.10;;;;;;5006983;28;81939;-38
2022/10/24 09:05:10;;;;;;;;;;;13.20;65.20;;;;;;5006703;28;82440;-38
2022/10/24 09:07:35;;;;;;;;;;;13.20;65.20;;;;;;5006157;28;85025;-38
2022/10/24 09:10:10;;;;;;;;;;;13.20;65.20;;;;;;5006857;28;82003;-38
2022/10/24 09:12:35;;;;;;;;;;;13.20;65.10;;;;;;5006360;28;82011;-38
2022/10/24 09:15:04;;;;;;;;;;;13.20;65.10;;;;;;5009335;28;82247;-38
2022/10/24 09:17:31;;;;;;;;;;;13.20;65.00;;;;;;5005513;28;85301;-37
2022/10/24 09:19:58;;;;;;;;;;;13.20;64.90;;;;;;5006341;28;82912;-38
2022/10/24 09:22:26;;;;;;;;;;;13.20;65.00;;;;;;5006522;28;82454;-38
2022/10/24 09:24:56;;;;;;;;;;;13.20;64.90;;;;;;5007093;28;82432;-38
2022/10/24 09:27:23;;;;;;;;;;;13.30;64.90;;;;;;5006221;28;82976;-38
2022/10/24 09:29:50;;;;;;;;;;;13.30;64.90;;;;;;5004865;28;81974;-38
2022/10/24 09:32:25;;;;;;;;;;;13.30;64.90;;;;;;5005973;28;82887;-38
2022/10/24 09:34:51;;;;;;;;;;;13.30;64.90;;;;;;5006142;28;82820;-38
2022/10/24 09:37:43;;;;;;;;;;;13.30;65.10;;;;;;5009061;28;81964;-38
2022/10/24 09:40:28;;;;;;;;;;;13.30;65.20;;;;;;5003907;28;83052;-38
2022/10/24 09:43:13;;;;;;;;;;;13.30;65.40;;;;;;5005939;28;82046;-38
2022/10/24 09:45:42;;;;;;;;;;;13.30;65.40;;;;;;5006474;28;82474;-38
2022/10/24 09:48:17;;;;;;;;;;;13.30;65.60;;;;;;5005810;28;83073;-38
2022/10/24 09:50:44;;;;;;;;;;;13.30;65.50;;;;;;5006505;28;81094;-38
2022/10/24 09:53:23;;;;;;;;;;;13.40;65.60;;;;;;5006139;28;82031;-38
2022/10/24 09:55:50;;;;;;;;;;;13.40;65.70;;;;;;5006024;28;82757;-38
2022/10/24 09:58:21;;;;;;;;;;;13.40;65.90;;;;;;5005289;28;83002;-38
2022/10/24 10:01:00;;;;;;;;;;;13.40;66.00;;;;;;5008680;28;83730;-38
2022/10/24 10:03:27;;;;;;;;;;;13.40;66.00;;;;;;5005727;28;82120;-38
2022/10/24 10:05:53;;;;;;;;;;;13.40;66.00;;;;;;5006023;28;82412;-38
2022/10/24 10:08:24;;;;;;;;;;;13.50;66.20;;;;;;5005961;28;83027;-38
2022/10/24 10:11:18;;;;;;;;;;;13.50;66.10;;;;;;5005969;28;82829;-38
2022/10/24 10:13:49;;;;;;;;;;;13.50;66.30;;;;;;5004291;28;82602;-38
2022/10/24 10:16:22;;;;;;;;;;;13.50;66.40;;;;;;5006147;28;84002;-38
2022/10/24 10:18:48;;;;;;;;;;;13.50;66.40;;;;;;5005740;28;81845;-38
2022/10/24 10:21:15;;;;;;;;;;;13.50;66.50;;;;;;5005658;28;82401;-38
2022/10/24 10:23:43;;;;;;;;;;;13.50;66.50;;;;;;5007651;28;83910;-38
2022/10/24 10:26:12;;;;;;;;;;;13.60;66.60;;;;;;5005737;28;83250;-38
2022/10/24 10:28:42;;;;;;;;;;;13.60;66.60;;;;;;5006446;28;82047;-38
2022/10/24 10:31:08;;;;;;;;;;;13.60;66.60;;;;;;5008886;28;82048;-38
2022/10/24 10:33:48;;;;;;;;;;;13.60;66.70;;;;;;5009182;28;82416;-38
2022/10/24 10:36:22;;;;;;;;;;;13.70;66.80;;;;;;5009103;28;82354;-38
2022/10/24 10:38:51;;;;;;;;;;;13.70;66.70;;;;;;5008729;28;81950;-38
2022/10/24 10:41:36;;;;;;;;;;;13.70;66.70;;;;;;5009957;28;82441;-38
2022/10/24 10:44:14;;;;;;;;;;;13.70;66.90;;;;;;5008852;28;82443;-38
2022/10/24 10:46:53;;;;;;;;;;;13.70;66.90;;;;;;5011685;28;81940;-38
2022/10/24 10:49:26;;;;;;;;;;;13.70;66.90;;;;;;5007934;28;83747;-38
2022/10/24 10:51:56;;;;;;;;;;;13.70;66.80;;;;;;5009203;28;82326;-38
2022/10/24 10:54:31;;;;;;;;;;;13.80;67.00;;;;;;5008742;28;81851;-38
2022/10/24 10:57:02;;;;;;;;;;;13.80;66.90;;;;;;5008496;28;82880;-38
2022/10/24 10:59:40;;;;;;;;;;;13.80;67.00;;;;;;5008981;28;81869;-38
2022/10/24 11:02:24;;;;;;;;;;;13.80;67.00;;;;;;5008826;28;82444;-38
2022/10/24 11:04:58;;;;;;;;;;;13.80;67.10;;;;;;5008763;28;83106;-38
2022/10/24 11:07:32;;;;;;;;;;;13.80;67.00;;;;;;5009165;28;81243;-38
2022/10/24 11:10:00;;;;;;;;;;;13.80;67.00;;;;;;5011398;28;81804;-39
2022/10/24 11:12:31;;;;;;;;;;;13.90;67.10;;;;;;5007927;28;82121;-38
2022/10/24 11:15:02;;;;;;;;;;;13.90;67.10;;;;;;5008095;28;82901;-38
2022/10/24 11:17:39;;;;;;;;;;;13.90;67.10;;;;;;5008206;28;82938;-38
2022/10/24 11:20:13;;;;;;;;;;;13.90;67.00;;;;;;5008455;28;82060;-38
2022/10/24 11:22:45;;;;;;;;;;;14.00;67.10;;;;;;5008814;28;82431;-38
2022/10/24 11:25:13;;;;;;;;;;;14.00;67.10;;;;;;5008433;28;83330;-38
2022/10/24 11:27:46;;;;;;;;;;;14.00;67.10;;;;;;5008575;28;81977;-38
2022/10/24 11:30:14;;;;;;;;;;;14.00;67.10;;;;;;5010903;28;83200;-38
2022/10/24 11:32:52;;;;;;;;;;;14.00;67.10;;;;;;5008794;28;81419;-38
2022/10/24 11:35:17;;;;;;;;;;;14.10;67.10;;;;;;5008526;28;82116;-38
2022/10/24 11:37:44;;;;;;;;;;;14.10;67.10;;;;;;5008247;28;83145;-38
2022/10/24 11:40:11;;;;;;;;;;;14.10;67.20;;;;;;5007046;28;82998;-38
2022/10/24 11:42:36;;;;;;;;;;;14.10;67.10;;;;;;5008236;28;83292;-38
2022/10/24 11:45:02;;;;;;;;;;;14.10;67.20;;;;;;5008122;28;83015;-38
2022/10/24 11:47:27;;;;;;;;;;;14.20;67.20;;;;;;5008049;28;81924;-38
2022/10/24 11:49:59;;;;;;;;;;;14.10;67.20;;;;;;5008175;28;82381;-38
2022/10/24 11:52:27;;;;;;;;;;;14.20;67.20;;;;;;5010762;28;82666;-38
2022/10/24 11:55:02;;;;;;;;;;;14.20;67.20;;;;;;5007907;28;82505;-38
2022/10/24 11:57:29;;;;;;;;;;;14.20;67.20;;;;;;5008194;28;81424;-38
2022/10/24 11:59:56;;;;;;;;;;;14.20;67.20;;;;;;5007895;28;82050;-38
2022/10/24 12:02:40;;;;;;;;;;;14.20;67.10;;;;;;5007797;28;82648;-38
2022/10/24 12:05:11;;;;;;;;;;;14.20;67.20;;;;;;5007187;28;83993;-38
2022/10/24 12:07:43;;;;;;;;;;;14.30;67.20;;;;;;5007859;28;82035;-38
2022/10/24 12:10:23;;;;;;;;;;;14.30;67.20;;;;;;5007942;28;82458;-38
2022/10/24 12:12:49;;;;;;;;;;;14.30;67.30;;;;;;5007039;28;82856;-38
2022/10/24 12:15:24;;;;;;;;;;;14.40;67.30;;;;;;5010339;28;82076;-38
2022/10/24 12:18:08;;;;;;;;;;;14.40;67.30;;;;;;5007647;28;83515;-38
2022/10/24 12:20:34;;;;;;;;;;;14.40;67.30;;;;;;5007519;28;81987;-38
2022/10/24 12:23:00;;;;;;;;;;;14.40;67.30;;;;;;5008015;28;81576;-38
2022/10/24 12:25:32;;;;;;;;;;;14.40;67.30;;;;;;5007180;28;82408;-38
2022/10/24 12:28:01;;;;;;;;;;;14.40;67.30;;;;;;5007237;28;82011;-38
2022/10/24 12:30:29;;;;;;;;;;;14.50;67.40;;;;;;5006663;28;82795;-38
2022/10/24 12:33:08;;;;;;;;;;;14.50;67.30;;;;;;5007029;28;83143;-38
2022/10/24 12:35:45;;;;;;;;;;;14.50;67.40;;;;;;5007650;28;82059;-38
2022/10/24 12:38:16;;;;;;;;;;;14.50;67.30;;;;;;5009918;28;82388;-38
2022/10/24 12:40:46;;;;;;;;;;;14.50;67.30;;;;;;5007362;28;81869;-38
2022/10/24 12:43:12;;;;;;;;;;;14.50;67.30;;;;;;5007364;28;82034;-38
2022/10/24 12:45:37;;;;;;;;;;;14.60;67.30;;;;;;5007055;28;83110;-38
2022/10/24 12:48:22;;;;;;;;;;;14.60;67.40;;;;;;5007849;28;81333;-38
2022/10/24 12:51:14;;;;;;;;;;;14.60;67.40;;;;;;5007229;28;81885;-38
2022/10/24 12:53:58;;;;;;;;;;;14.60;67.50;;;;;;5003834;28;82897;-38
2022/10/24 12:56:24;;;;;;;;;;;14.60;67.40;;;;;;5006561;28;82881;-38
2022/10/24 12:59:08;;;;;;;;;;;14.70;67.50;;;;;;5006962;28;83079;-38
2022/10/24 13:01:36;;;;;;;;;;;14.70;67.40;;;;;;5009766;28;83457;-38
2022/10/24 13:04:04;;;;;;;;;;;14.70;67.50;;;;;;5006838;28;82061;-38
2022/10/24 13:06:36;;;;;;;;;;;14.70;67.40;;;;;;5006756;28;83150;-38
2022/10/24 13:09:01;;;;;;;;;;;14.70;67.50;;;;;;5006829;28;82139;-38
2022/10/24 13:11:27;;;;;;;;;;;14.80;67.50;;;;;;5006358;28;82318;-38
2022/10/24 13:14:11;;;;;;;;;;;14.80;67.50;;;;;;5007398;28;82538;-38
2022/10/24 13:16:41;;;;;;;;;;;14.70;67.50;;;;;;5006934;28;82032;-38
2022/10/24 13:19:20;;;;;;;;;;;14.80;67.60;;;;;;5007017;28;82499;-38
2022/10/24 13:21:53;;;;;;;;;;;14.80;67.50;;;;;;5005544;28;83734;-38
2022/10/24 13:24:27;;;;;;;;;;;14.80;67.40;;;;;;5009282;28;81817;-38
2022/10/24 13:26:54;;;;;;;;;;;14.90;67.50;;;;;;5006513;28;83018;-38
2022/10/24 13:29:20;;;;;;;;;;;14.90;67.40;;;;;;5006689;28;82066;-38
2022/10/24 13:31:46;;;;;;;;;;;14.90;67.50;;;;;;5006644;28;82596;-38
2022/10/24 13:34:16;;;;;;;;;;;14.90;67.50;;;;;;5006400;28;82937;-38
2022/10/24 13:36:43;;;;;;;;;;;14.90;67.50;;;;;;5006330;28;81896;-38
2022/10/24 13:39:16;;;;;;;;;;;15.00;67.60;;;;;;5006879;28;81712;-38
2022/10/24 13:41:43;;;;;;;;;;;15.00;67.50;;;;;;5006545;28;82928;-38
2022/10/24 13:44:18;;;;;;;;;;;14.90;67.50;;;;;;5009095;28;82065;-38
2022/10/24 13:46:47;;;;;;;;;;;15.00;67.50;;;;;;5005449;28;84056;-38
2022/10/24 13:49:45;;;;;;;;;;;15.00;67.60;;;;;;5006090;28;82278;-38
2022/10/24 13:52:18;;;;;;;;;;;15.00;67.50;;;;;;5004355;28;82304;-38
2022/10/24 13:54:46;;;;;;;;;;;15.00;67.60;;;;;;5005851;28;82920;-38
2022/10/24 13:57:22;;;;;;;;;;;15.00;67.60;;;;;;5006250;28;82041;-38
2022/10/24 13:59:52;;;;;;;;;;;15.10;67.60;;;;;;5006259;28;81954;-38
2022/10/24 14:02:20;;;;;;;;;;;15.10;67.60;;;;;;5006177;28;82957;-38
2022/10/24 14:04:45;;;;;;;;;;;15.10;67.60;;;;;;5005931;28;81342;-38
2022/10/24 14:07:14;;;;;;;;;;;15.10;67.70;;;;;;5008486;28;81900;-38
2022/10/24 14:09:41;;;;;;;;;;;15.10;67.70;;;;;;5006023;28;81912;-38
2022/10/24 14:12:15;;;;;;;;;;;15.10;67.50;;;;;;5004941;28;82901;-38
2022/10/24 14:14:46;;;;;;;;;;;15.20;67.70;;;;;;5005524;28;83968;-38
2022/10/24 14:17:32;;;;;;;;;;;15.10;67.70;;;;;;5005856;28;81969;-38
2022/10/24 14:20:00;;;;;;;;;;;15.10;67.70;;;;;;5005827;28;82424;-38
2022/10/24 14:22:34;;;;;;;;;;;15.20;67.70;;;;;;5005525;28;83126;-38
2022/10/24 14:24:59;;;;;;;;;;;15.20;67.70;;;;;;5006063;28;81819;-38